Terminal Aerodrome Forecast
Issued by NWS

Home | Current Version | Previous Version | Text Only | Print | Product List | Glossary On
Versions: 1 2 3 4 5 6 7 8 9 10 11 12 13 14 15 16 17
000
FTUS46 KLOX 201700
TAFOXR
TAF
KOXR 201727Z 2018/2118 05004KT P6SM BKN024
     FM202000 23006KT P6SM BKN030
     FM202200 25012KT P6SM SCT025
     FM210400 VRB03KT P6SM SCT015
     FM210700 VRB03KT 5SM BR OVC009=

USA.gov is the U.S. government's official web portal to all federal, state and local government web resources and services.